Time;durP1;ratioP1;P1;durP2;ratioP2;P2;SDS_P1;SDS_P2;PMS_P1;PMS_P2;Temp;Humidity;BMP_temperature;BMP_pressure;BME280_temperature;BME280_humidity;BME280_pressure;Samples;Min_cycle;Max_cycle;Signal;HPM_P1;HPM_P2
2023/03/28 00:01:07;;;;;;;3.13;1.40;;;;;;;;;;5010874;28;20029;-78
2023/03/28 00:03:38;;;;;;;2.90;1.30;;;;;;;;;;4994192;28;20026;-78
2023/03/28 00:06:17;;;;;;;3.70;1.50;;;;;;;;;;5009588;28;20030;-78
2023/03/28 00:08:44;;;;;;;2.08;1.17;;;;;;;;;;5009738;28;20026;-77
2023/03/28 00:11:28;;;;;;;4.85;1.35;;;;;;;;;;4995740;28;20022;-78
2023/03/28 00:13:59;;;;;;;3.85;1.42;;;;;;;;;;5012553;28;20437;-78
2023/03/28 00:16:26;;;;;;;2.90;1.40;;;;;;;;;;4993889;28;20026;-78
2023/03/28 00:18:51;;;;;;;3.95;1.50;;;;;;;;;;5005713;28;20030;-78
2023/03/28 00:21:18;;;;;;;3.53;1.27;;;;;;;;;;5010581;28;20048;-78
2023/03/28 00:23:44;;;;;;;4.05;1.40;;;;;;;;;;5009880;28;20113;-79
2023/03/28 00:26:11;;;;;;;3.95;1.58;;;;;;;;;;5010383;28;20541;-78
2023/03/28 00:28:37;;;;;;;2.92;1.42;;;;;;;;;;4989326;28;20022;-78
2023/03/28 00:31:05;;;;;;;2.92;1.23;;;;;;;;;;5012992;28;20022;-78
2023/03/28 00:33:30;;;;;;;3.88;1.55;;;;;;;;;;4995652;28;20081;-78
2023/03/28 00:35:56;;;;;;;4.63;1.52;;;;;;;;;;5011503;28;20033;-78
2023/03/28 00:38:21;;;;;;;5.60;1.80;;;;;;;;;;5012380;28;20390;-78
2023/03/28 00:40:47;;;;;;;3.13;1.40;;;;;;;;;;4994052;28;20108;-78
2023/03/28 00:43:13;;;;;;;3.92;1.50;;;;;;;;;;5004730;28;20049;-77
2023/03/28 00:45:39;;;;;;;3.55;1.40;;;;;;;;;;5010133;28;20112;-78
2023/03/28 00:48:12;;;;;;;3.33;1.30;;;;;;;;;;4996486;28;20061;-78
2023/03/28 00:50:41;;;;;;;5.75;1.60;;;;;;;;;;4995314;28;20116;-79
2023/03/28 00:53:14;;;;;;;5.38;1.58;;;;;;;;;;5008904;28;20029;-79
2023/03/28 00:55:47;;;;;;;4.13;1.60;;;;;;;;;;4991812;28;20048;-79
2023/03/28 00:58:21;;;;;;;3.60;1.40;;;;;;;;;;5001332;28;20363;-78
2023/03/28 01:00:46;;;;;;;3.22;1.73;;;;;;;;;;5005770;28;20030;-78
2023/03/28 01:03:14;;;;;;;4.00;1.65;;;;;;;;;;5013041;28;20049;-78
2023/03/28 01:05:42;;;;;;;4.75;1.58;;;;;;;;;;4990312;28;20045;-78
2023/03/28 01:08:21;;;;;;;3.67;1.77;;;;;;;;;;5015678;28;20489;-78
2023/03/28 01:10:47;;;;;;;5.40;1.67;;;;;;;;;;4989743;28;20698;-79
2023/03/28 01:13:19;;;;;;;3.83;1.52;;;;;;;;;;5010124;28;20036;-78
2023/03/28 01:15:48;;;;;;;4.03;1.70;;;;;;;;;;4983819;28;20026;-78
2023/03/28 01:18:15;;;;;;;5.88;1.70;;;;;;;;;;4991224;28;20030;-78
2023/03/28 01:20:46;;;;;;;3.88;1.52;;;;;;;;;;4992820;28;20032;-78
2023/03/28 01:23:36;;;;;;;3.97;1.50;;;;;;;;;;5003841;28;20021;-78
2023/03/28 01:26:10;;;;;;;6.40;1.88;;;;;;;;;;5004167;28;20026;-79
2023/03/28 01:29:04;;;;;;;3.42;1.38;;;;;;;;;;5005022;28;20030;-78
2023/03/28 01:32:09;;;;;;;3.40;1.60;;;;;;;;;;4994165;28;20540;-78
2023/03/28 01:35:02;;;;;;;4.18;1.65;;;;;;;;;;4992043;28;20564;-78
2023/03/28 01:37:46;;;;;;;;;;;;;;;;;;5011714;28;20160;-79
2023/03/28 01:40:17;;;;;;;3.67;1.30;;;;;;;;;;4995026;28;20365;-79
2023/03/28 01:43:04;;;;;;;6.82;1.60;;;;;;;;;;4995695;28;20037;-79
2023/03/28 01:45:47;;;;;;;4.28;1.13;;;;;;;;;;5013633;28;20513;-78
2023/03/28 01:48:46;;;;;;;5.60;1.65;;;;;;;;;;5011615;28;20053;-78
2023/03/28 01:51:33;;;;;;;4.68;1.38;;;;;;;;;;5014690;28;20096;-78
2023/03/28 01:54:23;;;;;;;3.38;1.27;;;;;;;;;;4990702;28;20036;-79
2023/03/28 01:57:00;;;;;;;3.53;1.10;;;;;;;;;;4947858;28;20478;-78
2023/03/28 01:59:32;;;;;;;4.63;1.20;;;;;;;;;;4988565;28;20034;-78
2023/03/28 02:02:05;;;;;;;4.18;1.40;;;;;;;;;;4995273;28;20029;-79
2023/03/28 02:04:34;;;;;;;2.85;1.25;;;;;;;;;;4996752;28;20398;-78
2023/03/28 02:07:00;;;;;;;3.78;1.30;;;;;;;;;;4994082;28;20026;-78
2023/03/28 02:09:30;;;;;;;3.97;1.15;;;;;;;;;;4997173;28;20140;-79
2023/03/28 02:12:01;;;;;;;5.05;1.38;;;;;;;;;;5008464;28;20030;-78
2023/03/28 02:14:32;;;;;;;3.88;1.17;;;;;;;;;;4998585;28;20022;-79
2023/03/28 02:17:03;;;;;;;3.60;1.23;;;;;;;;;;5009175;28;20029;-78
2023/03/28 02:19:32;;;;;;;4.20;1.27;;;;;;;;;;5016814;28;20671;-78
2023/03/28 02:22:07;;;;;;;4.68;1.35;;;;;;;;;;4991769;28;20026;-79
2023/03/28 02:24:32;;;;;;;3.60;1.40;;;;;;;;;;5013964;28;20036;-79
2023/03/28 02:26:58;;;;;;;4.22;1.30;;;;;;;;;;4994604;28;20486;-79
2023/03/28 02:29:23;;;;;;;3.60;1.38;;;;;;;;;;4995661;28;20030;-79
2023/03/28 02:31:49;;;;;;;2.85;1.40;;;;;;;;;;5011887;28;20026;-78
2023/03/28 02:34:15;;;;;;;2.83;1.30;;;;;;;;;;4991737;28;20363;-79
2023/03/28 02:36:59;;;;;;;3.50;1.50;;;;;;;;;;5013854;28;20030;-79
2023/03/28 02:39:58;;;;;;;2.90;1.20;;;;;;;;;;4993467;28;20030;-79
2023/03/28 02:42:47;;;;;;;5.03;1.40;;;;;;;;;;5009554;28;20474;-80
2023/03/28 02:45:49;;;;;;;4.15;1.35;;;;;;;;;;5012956;28;20494;-78
2023/03/28 02:48:23;;;;;;;5.07;1.50;;;;;;;;;;5008826;28;20022;-78
2023/03/28 02:51:05;;;;;;;4.50;1.60;;;;;;;;;;5008707;28;20026;-78
2023/03/28 02:53:34;;;;;;;3.72;1.35;;;;;;;;;;4991624;28;20029;-78
2023/03/28 02:56:08;;;;;;;4.60;1.55;;;;;;;;;;5012839;28;20390;-78
2023/03/28 02:58:47;;;;;;;4.22;1.48;;;;;;;;;;4990988;28;20025;-79
2023/03/28 03:01:15;;;;;;;5.05;1.60;;;;;;;;;;4992208;28;20030;-79
2023/03/28 03:03:42;;;;;;;4.93;1.50;;;;;;;;;;5013387;28;20022;-79
2023/03/28 03:06:08;;;;;;;4.70;1.73;;;;;;;;;;4990733;28;20493;-78
2023/03/28 03:08:34;;;;;;;3.92;1.70;;;;;;;;;;5012966;28;20501;-78
2023/03/28 03:10:59;;;;;;;3.42;1.38;;;;;;;;;;5006252;28;20061;-78
2023/03/28 03:13:25;;;;;;;3.25;1.50;;;;;;;;;;4996517;28;20030;-78
2023/03/28 03:15:53;;;;;;;3.33;1.58;;;;;;;;;;5015298;28;20524;-78
2023/03/28 03:18:19;;;;;;;4.28;1.65;;;;;;;;;;5012364;28;20049;-78
2023/03/28 03:20:44;;;;;;;5.25;1.70;;;;;;;;;;4991987;28;20111;-79
2023/03/28 03:23:11;;;;;;;4.50;1.83;;;;;;;;;;4997522;28;20035;-79
2023/03/28 03:25:37;;;;;;;3.50;1.52;;;;;;;;;;4997328;28;20184;-78
2023/03/28 03:28:02;;;;;;;5.20;1.90;;;;;;;;;;5013255;28;20108;-79
2023/03/28 03:30:28;;;;;;;4.50;1.80;;;;;;;;;;4990666;28;20044;-78
2023/03/28 03:32:54;;;;;;;3.97;1.80;;;;;;;;;;5015519;28;20040;-78
2023/03/28 03:35:20;;;;;;;4.82;1.70;;;;;;;;;;5012231;28;20044;-78
2023/03/28 03:37:45;;;;;;;4.25;1.90;;;;;;;;;;4997428;28;20088;-78
2023/03/28 03:40:11;;;;;;;3.60;1.67;;;;;;;;;;4993818;28;20034;-78
2023/03/28 03:42:37;;;;;;;4.97;2.10;;;;;;;;;;5011402;28;20037;-79
2023/03/28 03:45:03;;;;;;;4.03;1.70;;;;;;;;;;4994759;28;20521;-79
2023/03/28 03:47:29;;;;;;;4.85;1.85;;;;;;;;;;5004601;28;20045;-78
2023/03/28 03:49:54;;;;;;;4.32;1.80;;;;;;;;;;4992272;28;20021;-78
2023/03/28 03:52:20;;;;;;;5.68;1.90;;;;;;;;;;4992408;28;20103;-78
2023/03/28 03:54:45;;;;;;;9.15;2.08;;;;;;;;;;5010232;28;20525;-78
2023/03/28 03:57:10;;;;;;;3.10;1.75;;;;;;;;;;5013659;28;20022;-78
2023/03/28 03:59:36;;;;;;;6.95;2.05;;;;;;;;;;4994133;28;20044;-78
2023/03/28 04:02:01;;;;;;;5.35;2.20;;;;;;;;;;4995753;28;20026;-78
2023/03/28 04:04:27;;;;;;;5.15;2.03;;;;;;;;;;4999026;28;20478;-78
2023/03/28 04:06:53;;;;;;;7.05;2.40;;;;;;;;;;4994813;28;20070;-78
2023/03/28 04:09:21;;;;;;;4.32;1.88;;;;;;;;;;5016189;28;20034;-78
2023/03/28 04:11:46;;;;;;;3.63;1.95;;;;;;;;;;5009157;28;20628;-79
2023/03/28 04:14:12;;;;;;;4.32;2.00;;;;;;;;;;4998496;28;20034;-78
2023/03/28 04:16:37;;;;;;;4.97;1.95;;;;;;;;;;5012900;28;20072;-78
2023/03/28 04:19:04;;;;;;;4.32;1.92;;;;;;;;;;4989675;28;20028;-78
2023/03/28 04:21:31;;;;;;;4.18;1.70;;;;;;;;;;5006310;28;20425;-78
2023/03/28 04:24:00;;;;;;;4.35;2.00;;;;;;;;;;5012059;28;20386;-77
2023/03/28 04:26:26;;;;;;;3.40;1.70;;;;;;;;;;5007449;28;20109;-78
2023/03/28 04:28:53;;;;;;;4.22;1.90;;;;;;;;;;5005061;28;20120;-77
2023/03/28 04:31:20;;;;;;;3.92;2.00;;;;;;;;;;5008978;28;20017;-77
2023/03/28 04:33:47;;;;;;;5.28;2.25;;;;;;;;;;4991233;28;20112;-77
2023/03/28 04:36:15;;;;;;;6.50;2.20;;;;;;;;;;5010097;28;20033;-77
2023/03/28 04:38:44;;;;;;;4.57;1.90;;;;;;;;;;4994369;28;20037;-77
2023/03/28 04:41:10;;;;;;;5.80;2.13;;;;;;;;;;5005779;28;20524;-77
2023/03/28 04:43:35;;;;;;;4.75;1.90;;;;;;;;;;4992563;28;20033;-76
2023/03/28 04:46:01;;;;;;;3.30;1.70;;;;;;;;;;5009871;28;20053;-76
2023/03/28 04:48:26;;;;;;;5.45;1.90;;;;;;;;;;4993455;28;20113;-76
2023/03/28 04:50:53;;;;;;;4.90;2.17;;;;;;;;;;5004045;28;20100;-77
2023/03/28 04:53:19;;;;;;;4.43;1.77;;;;;;;;;;5004885;28;20062;-76
2023/03/28 04:55:49;;;;;;;4.72;1.73;;;;;;;;;;4995932;28;20109;-76
2023/03/28 04:58:16;;;;;;;5.35;1.90;;;;;;;;;;4992275;28;20088;-77
2023/03/28 05:00:41;;;;;;;4.90;2.10;;;;;;;;;;5011622;28;20463;-77
2023/03/28 05:03:17;;;;;;;3.63;2.15;;;;;;;;;;4990106;28;20061;-78
2023/03/28 05:05:43;;;;;;;4.90;1.90;;;;;;;;;;4990861;28;20064;-76
2023/03/28 05:08:09;;;;;;;4.35;1.90;;;;;;;;;;5005682;28;20168;-77
2023/03/28 05:10:34;;;;;;;3.95;1.98;;;;;;;;;;4998016;28;20120;-77
2023/03/28 05:13:00;;;;;;;3.83;2.10;;;;;;;;;;5002731;28;20026;-76
2023/03/28 05:15:26;;;;;;;6.18;2.30;;;;;;;;;;4990887;28;20449;-78
2023/03/28 05:17:51;;;;;;;4.53;2.08;;;;;;;;;;5005823;28;20632;-76
2023/03/28 05:20:18;;;;;;;5.70;2.25;;;;;;;;;;5006446;28;20490;-77
2023/03/28 05:22:43;;;;;;;4.63;2.25;;;;;;;;;;5005904;28;20463;-77
2023/03/28 05:25:09;;;;;;;5.85;2.30;;;;;;;;;;4991703;28;20042;-77
2023/03/28 05:27:37;;;;;;;4.85;2.13;;;;;;;;;;4989002;28;20486;-77
2023/03/28 05:30:03;;;;;;;6.40;2.13;;;;;;;;;;5007541;28;20028;-78
2023/03/28 05:32:30;;;;;;;4.82;2.70;;;;;;;;;;5008876;28;20025;-76
2023/03/28 05:34:55;;;;;;;7.55;2.35;;;;;;;;;;4993334;28;20083;-76
2023/03/28 05:37:20;;;;;;;4.43;2.20;;;;;;;;;;5010337;28;20025;-76
2023/03/28 05:39:46;;;;;;;4.53;2.25;;;;;;;;;;5009523;28;20037;-77
2023/03/28 05:42:11;;;;;;;10.13;2.83;;;;;;;;;;5013261;28;20029;-77
2023/03/28 05:44:36;;;;;;;5.63;2.40;;;;;;;;;;4986145;28;20026;-78
2023/03/28 05:47:02;;;;;;;6.68;2.72;;;;;;;;;;5006418;28;20038;-76
2023/03/28 05:49:27;;;;;;;5.75;3.20;;;;;;;;;;5009650;28;20077;-77
2023/03/28 05:51:52;;;;;;;6.30;3.30;;;;;;;;;;4994301;28;20046;-76
2023/03/28 05:54:18;;;;;;;7.45;3.45;;;;;;;;;;5006767;28;20026;-76
2023/03/28 05:56:43;;;;;;;8.80;3.55;;;;;;;;;;5006963;28;20088;-78
2023/03/28 05:59:09;;;;;;;7.05;4.10;;;;;;;;;;4994488;28;20033;-76
2023/03/28 06:01:35;;;;;;;8.57;4.60;;;;;;;;;;5008226;28;20032;-77
2023/03/28 06:04:02;;;;;;;9.00;4.20;;;;;;;;;;5006477;28;20057;-77
2023/03/28 06:06:28;;;;;;;6.45;4.10;;;;;;;;;;4987638;28;20065;-76
2023/03/28 06:08:53;;;;;;;7.72;3.85;;;;;;;;;;5006596;28;20021;-76
2023/03/28 06:11:19;;;;;;;9.52;4.30;;;;;;;;;;5007265;28;20097;-77
2023/03/28 06:13:44;;;;;;;6.47;3.83;;;;;;;;;;4993109;28;20482;-77
2023/03/28 06:16:10;;;;;;;8.27;3.63;;;;;;;;;;4988379;28;20108;-77
2023/03/28 06:18:35;;;;;;;8.10;4.18;;;;;;;;;;4996949;28;20034;-77
2023/03/28 06:21:01;;;;;;;8.68;3.88;;;;;;;;;;4994167;28;20084;-79
2023/03/28 06:23:26;;;;;;;7.05;4.28;;;;;;;;;;5014552;28;20037;-77
2023/03/28 06:25:51;;;;;;;8.90;4.40;;;;;;;;;;5013495;28;20084;-77
2023/03/28 06:28:17;;;;;;;8.05;4.35;;;;;;;;;;4995835;28;20049;-77
2023/03/28 06:30:47;;;;;;;7.10;4.10;;;;;;;;;;4996218;28;20432;-76
2023/03/28 06:33:12;;;;;;;10.40;4.57;;;;;;;;;;5009584;28;20080;-77
2023/03/28 06:35:37;;;;;;;8.65;4.20;;;;;;;;;;4997570;28;20500;-78
2023/03/28 06:38:03;;;;;;;7.25;4.22;;;;;;;;;;5012454;28;20394;-77
2023/03/28 06:40:28;;;;;;;7.38;4.18;;;;;;;;;;4993724;28;20371;-77
2023/03/28 06:42:53;;;;;;;9.43;4.65;;;;;;;;;;4998545;28;20029;-76
2023/03/28 06:45:19;;;;;;;7.35;4.55;;;;;;;;;;4993757;28;20029;-77
2023/03/28 06:47:44;;;;;;;7.97;4.40;;;;;;;;;;5012077;28;20494;-77
2023/03/28 06:50:10;;;;;;;8.30;5.20;;;;;;;;;;4996536;28;20032;-77
2023/03/28 06:52:36;;;;;;;7.10;4.55;;;;;;;;;;4995292;28;20402;-77
2023/03/28 06:55:01;;;;;;;11.38;4.95;;;;;;;;;;5013991;28;20111;-77
2023/03/28 06:57:26;;;;;;;7.10;4.20;;;;;;;;;;5011497;28;20079;-77
2023/03/28 06:59:52;;;;;;;12.52;5.25;;;;;;;;;;5017376;28;20446;-79
2023/03/28 07:02:17;;;;;;;7.97;4.90;;;;;;;;;;5009119;28;20041;-77
2023/03/28 07:04:43;;;;;;;10.68;5.47;;;;;;;;;;5013739;28;20477;-77
2023/03/28 07:07:08;;;;;;;7.32;4.97;;;;;;;;;;5012913;28;20076;-77
2023/03/28 07:09:35;;;;;;;7.93;5.10;;;;;;;;;;5011042;28;20029;-77
2023/03/28 07:12:01;;;;;;;8.98;5.10;;;;;;;;;;5017512;28;20553;-76
2023/03/28 07:14:27;;;;;;;8.85;5.28;;;;;;;;;;5013262;28;20112;-78
2023/03/28 07:16:52;;;;;;;13.68;5.47;;;;;;;;;;4992758;28;20109;-77
2023/03/28 07:19:17;;;;;;;8.20;5.32;;;;;;;;;;5010377;28;20025;-78
2023/03/28 07:21:43;;;;;;;8.80;5.57;;;;;;;;;;4988676;28;20062;-77
2023/03/28 07:24:08;;;;;;;9.13;5.30;;;;;;;;;;4996377;28;20088;-79
2023/03/28 07:26:34;;;;;;;9.38;5.40;;;;;;;;;;5009299;28;20043;-78
2023/03/28 07:28:59;;;;;;;10.18;5.65;;;;;;;;;;4997197;28;20036;-77
2023/03/28 07:31:25;;;;;;;9.70;4.93;;;;;;;;;;4994941;28;20020;-77
2023/03/28 07:33:51;;;;;;;8.70;5.65;;;;;;;;;;5011314;28;20028;-76
2023/03/28 07:36:19;;;;;;;10.45;5.50;;;;;;;;;;4993183;28;20025;-76
2023/03/28 07:38:45;;;;;;;11.80;5.85;;;;;;;;;;4994244;28;20087;-78
2023/03/28 07:41:11;;;;;;;11.52;5.35;;;;;;;;;;5004525;28;20076;-77
2023/03/28 07:43:38;;;;;;;10.70;6.05;;;;;;;;;;4990668;28;20033;-76
2023/03/28 07:46:10;;;;;;;13.05;6.00;;;;;;;;;;4990108;28;20040;-77
2023/03/28 07:48:36;;;;;;;11.98;6.03;;;;;;;;;;4992999;28;20037;-78
2023/03/28 07:51:05;;;;;;;11.30;5.38;;;;;;;;;;5002488;28;20733;-77
2023/03/28 07:53:30;;;;;;;12.95;6.03;;;;;;;;;;5002494;28;20033;-79
2023/03/28 07:55:56;;;;;;;12.60;5.85;;;;;;;;;;4984726;28;20026;-77
2023/03/28 07:58:21;;;;;;;12.27;6.38;;;;;;;;;;4985260;28;20040;-78
2023/03/28 08:00:47;;;;;;;10.98;6.15;;;;;;;;;;4998724;28;20038;-77
2023/03/28 08:03:13;;;;;;;13.45;5.97;;;;;;;;;;5005305;28;20083;-78
2023/03/28 08:05:38;;;;;;;11.25;5.95;;;;;;;;;;4986408;28;20478;-77
2023/03/28 08:08:05;;;;;;;9.23;5.47;;;;;;;;;;5006377;28;20075;-76
2023/03/28 08:10:31;;;;;;;10.25;5.47;;;;;;;;;;4984691;28;20565;-77
2023/03/28 08:12:57;;;;;;;9.40;4.57;;;;;;;;;;4990200;28;20569;-76
2023/03/28 08:15:22;;;;;;;10.70;4.97;;;;;;;;;;5005224;28;20490;-77
2023/03/28 08:17:47;;;;;;;8.40;4.68;;;;;;;;;;4987740;28;20061;-77
2023/03/28 08:20:13;;;;;;;8.73;4.82;;;;;;;;;;5010237;28;20050;-76
2023/03/28 08:22:38;;;;;;;9.65;5.05;;;;;;;;;;5012792;28;20021;-76
2023/03/28 08:25:05;;;;;;;9.38;4.57;;;;;;;;;;4988070;28;20034;-76
2023/03/28 08:27:31;;;;;;;8.82;4.78;;;;;;;;;;4992233;28;20033;-77
2023/03/28 08:29:56;;;;;;;8.05;5.07;;;;;;;;;;5016892;28;20063;-76
2023/03/28 08:32:22;;;;;;;9.55;5.22;;;;;;;;;;4993151;28;20552;-76
2023/03/28 08:34:47;;;;;;;9.00;5.00;;;;;;;;;;4994160;28;20037;-76
2023/03/28 08:37:12;;;;;;;9.90;4.65;;;;;;;;;;4990094;28;20080;-76
2023/03/28 08:39:40;;;;;;;7.97;3.95;;;;;;;;;;5011588;28;20057;-77
2023/03/28 08:42:35;;;;;;;12.38;4.82;;;;;;;;;;4992577;28;20033;-76
2023/03/28 08:45:15;;;;;;;6.80;3.95;;;;;;;;;;5005498;28;20049;-76
2023/03/28 08:47:56;;;;;;;5.78;3.67;;;;;;;;;;5008296;28;20393;-77
2023/03/28 08:50:30;;;;;;;11.50;3.80;;;;;;;;;;5003544;28;20034;-77
2023/03/28 08:52:56;;;;;;;7.55;3.30;;;;;;;;;;5005376;28;20079;-76
2023/03/28 08:55:21;;;;;;;7.18;2.58;;;;;;;;;;5001173;28;20030;-76
2023/03/28 08:57:49;;;;;;;5.68;2.80;;;;;;;;;;5000125;28;20066;-77
2023/03/28 09:00:21;;;;;;;6.68;3.00;;;;;;;;;;4988408;28;20597;-75
2023/03/28 09:02:47;;;;;;;5.33;2.50;;;;;;;;;;4986462;28;20034;-76
2023/03/28 09:05:20;;;;;;;4.07;2.17;;;;;;;;;;5005083;28;20040;-76
2023/03/28 09:07:55;;;;;;;7.82;2.70;;;;;;;;;;5007862;28;20033;-76
2023/03/28 09:10:52;;;;;;;4.20;2.10;;;;;;;;;;5005419;28;20029;-76
2023/03/28 09:13:42;;;;;;;6.78;2.33;;;;;;;;;;5000444;28;20038;-77
2023/03/28 09:16:40;;;;;;;8.38;2.00;;;;;;;;;;4995371;28;20478;-76
2023/03/28 09:19:37;;;;;;;8.02;2.00;;;;;;;;;;5007567;28;20367;-76
2023/03/28 09:22:35;;;;;;;5.53;1.67;;;;;;;;;;4957058;28;20042;-76
2023/03/28 09:25:19;;;;;;;5.45;1.40;;;;;;;;;;5009047;28;20037;-76
2023/03/28 09:27:58;;;;;;;4.20;1.33;;;;;;;;;;5007405;28;20501;-76
2023/03/28 09:30:32;;;;;;;4.05;1.42;;;;;;;;;;5007250;28;20088;-77
2023/03/28 09:33:03;;;;;;;6.68;1.83;;;;;;;;;;5004068;28;20485;-76
2023/03/28 09:35:30;;;;;;;6.68;1.40;;;;;;;;;;5007313;28;20057;-76
2023/03/28 09:38:01;;;;;;;3.58;1.35;;;;;;;;;;4998081;28;20537;-77
2023/03/28 09:40:32;;;;;;;3.22;1.40;;;;;;;;;;4996891;28;20034;-77
2023/03/28 09:43:18;;;;;;;3.75;1.70;;;;;;;;;;5008388;28;20481;-76
2023/03/28 09:46:01;;;;;;;4.28;1.80;;;;;;;;;;4984395;28;20041;-76
2023/03/28 09:48:32;;;;;;;8.00;1.73;;;;;;;;;;4988737;28;20045;-77
2023/03/28 09:50:59;;;;;;;5.55;1.88;;;;;;;;;;5016384;28;20087;-77
2023/03/28 09:53:36;;;;;;;5.53;1.90;;;;;;;;;;5000568;28;20087;-76
2023/03/28 09:56:11;;;;;;;4.28;1.88;;;;;;;;;;5007411;28;20025;-76
2023/03/28 09:58:48;;;;;;;5.32;1.33;;;;;;;;;;5010053;28;20426;-78
2023/03/28 10:01:33;;;;;;;4.95;1.27;;;;;;;;;;5010180;28;20036;-78
2023/03/28 10:03:59;;;;;;;2.63;1.15;;;;;;;;;;4994070;28;20034;-77
2023/03/28 10:06:29;;;;;;;3.53;1.10;;;;;;;;;;5005326;28;20036;-76
2023/03/28 10:09:17;;;;;;;2.97;1.17;;;;;;;;;;5015601;28;20076;-77
2023/03/28 10:11:55;;;;;;;3.45;1.20;;;;;;;;;;5009922;28;20052;-76
2023/03/28 10:14:40;;;;;;;4.15;1.05;;;;;;;;;;5009319;28;20041;-76
2023/03/28 10:17:24;;;;;;;3.80;1.05;;;;;;;;;;5006884;28;20509;-76
2023/03/28 10:19:50;;;;;;;;;;;;;;;;;;5010976;28;20496;-77
2023/03/28 10:22:34;;;;;;;4.20;1.10;;;;;;;;;;5017413;28;19917;-76
2023/03/28 10:25:03;;;;;;;5.82;1.30;;;;;;;;;;5015728;28;20454;-76
2023/03/28 10:27:31;;;;;;;3.25;1.23;;;;;;;;;;4989686;28;20034;-76
2023/03/28 10:30:07;;;;;;;3.25;1.27;;;;;;;;;;5005019;28;20034;-76
2023/03/28 10:32:33;;;;;;;5.50;1.75;;;;;;;;;;4985559;28;20493;-77
2023/03/28 10:35:26;;;;;;;6.47;1.35;;;;;;;;;;4992226;28;20352;-76
2023/03/28 10:37:53;;;;;;;4.85;1.58;;;;;;;;;;5005393;28;20111;-77
2023/03/28 10:40:21;;;;;;;5.95;1.30;;;;;;;;;;5010682;28;20030;-76
2023/03/28 10:42:50;;;;;;;4.43;1.65;;;;;;;;;;5008874;28;20018;-76
2023/03/28 10:45:28;;;;;;;4.13;1.60;;;;;;;;;;5011427;28;20129;-76
2023/03/28 10:47:58;;;;;;;3.10;1.10;;;;;;;;;;4991652;28;20396;-76
2023/03/28 10:50:45;;;;;;;6.05;1.58;;;;;;;;;;5010519;28;20040;-77
2023/03/28 10:53:36;;;;;;;5.93;1.40;;;;;;;;;;4997698;28;20144;-76
2023/03/28 10:56:40;;;;;;;4.72;1.23;;;;;;;;;;4989250;28;20033;-75
2023/03/28 10:59:26;;;;;;;3.53;1.13;;;;;;;;;;5004958;28;20032;-75
2023/03/28 11:02:24;;;;;;;3.95;1.15;;;;;;;;;;5008316;28;20068;-75
2023/03/28 11:05:09;;;;;;;3.15;1.23;;;;;;;;;;4945196;28;20034;-77
2023/03/28 11:07:50;;;;;;;4.55;1.52;;;;;;;;;;4973273;28;20111;-76
2023/03/28 11:10:43;;;;;;;4.13;1.20;;;;;;;;;;4989994;28;20084;-76
2023/03/28 11:13:14;;;;;;;2.42;1.10;;;;;;;;;;5006907;28;20037;-76
2023/03/28 11:15:59;;;;;;;6.10;1.27;;;;;;;;;;5015470;28;20421;-76
2023/03/28 11:18:50;;;;;;;4.07;1.20;;;;;;;;;;5005371;28;20124;-76
2023/03/28 11:21:26;;;;;;;6.03;1.65;;;;;;;;;;4993238;28;20181;-77
2023/03/28 11:23:57;;;;;;;2.72;1.20;;;;;;;;;;5012278;28;20033;-77
2023/03/28 11:26:32;;;;;;;3.60;1.67;;;;;;;;;;5005316;28;20116;-77
2023/03/28 11:29:38;;;;;;;3.55;1.13;;;;;;;;;;5001315;28;20036;-76
2023/03/28 11:32:25;;;;;;;3.92;1.30;;;;;;;;;;4998087;28;20042;-77
2023/03/28 11:35:12;;;;;;;2.58;1.20;;;;;;;;;;4991128;28;20034;-76
2023/03/28 11:38:03;;;;;;;3.47;1.20;;;;;;;;;;4996847;28;20072;-76
2023/03/28 11:40:33;;;;;;;3.83;1.20;;;;;;;;;;4995539;28;20525;-76
2023/03/28 11:43:05;;;;;;;3.75;1.45;;;;;;;;;;5007199;28;20025;-76
2023/03/28 11:45:36;;;;;;;4.40;1.27;;;;;;;;;;5008325;28;20639;-76
2023/03/28 11:48:06;;;;;;;3.25;1.10;;;;;;;;;;5009445;28;20654;-76
2023/03/28 11:50:41;;;;;;;5.65;1.60;;;;;;;;;;5002974;28;20030;-76
2023/03/28 11:53:17;;;;;;;4.75;1.38;;;;;;;;;;5006686;28;20099;-76
2023/03/28 11:55:49;;;;;;;4.47;1.20;;;;;;;;;;4994126;28;20524;-77
2023/03/28 11:58:26;;;;;;;6.22;1.30;;;;;;;;;;4995151;28;20538;-77
2023/03/28 12:00:54;;;;;;;3.15;1.05;;;;;;;;;;5010456;28;20030;-76
2023/03/28 12:03:31;;;;;;;4.88;1.40;;;;;;;;;;5008311;28;20033;-77
2023/03/28 12:06:04;;;;;;;3.85;1.17;;;;;;;;;;4990578;28;20048;-77
2023/03/28 12:08:35;;;;;;;3.70;1.20;;;;;;;;;;5014682;28;20113;-78
2023/03/28 12:11:13;;;;;;;7.35;1.33;;;;;;;;;;5006203;28;20405;-76
2023/03/28 12:13:49;;;;;;;3.95;1.25;;;;;;;;;;4988244;28;20466;-76
2023/03/28 12:16:33;;;;;;;7.13;1.42;;;;;;;;;;5007347;28;20036;-76
2023/03/28 12:19:01;;;;;;;3.45;1.20;;;;;;;;;;5001401;28;20087;-75
2023/03/28 12:21:39;;;;;;;3.22;1.15;;;;;;;;;;5012560;28;20034;-76
2023/03/28 12:24:16;;;;;;;2.90;1.20;;;;;;;;;;5001913;28;20036;-76
2023/03/28 12:27:24;;;;;;;4.13;1.75;;;;;;;;;;4995203;28;20030;-76
2023/03/28 12:30:05;;;;;;;4.00;1.42;;;;;;;;;;4992008;28;20044;-76
2023/03/28 12:33:00;;;;;;;4.80;1.70;;;;;;;;;;4989664;28;20057;-76
2023/03/28 12:35:39;;;;;;;4.88;1.50;;;;;;;;;;5011363;28;20034;-77
2023/03/28 12:38:31;;;;;;;6.65;1.45;;;;;;;;;;4991335;28;20025;-76
2023/03/28 12:40:56;;;;;;;6.35;1.63;;;;;;;;;;5013526;28;20049;-76
2023/03/28 12:43:28;;;;;;;4.38;1.60;;;;;;;;;;4994554;28;20454;-77
2023/03/28 12:45:59;;;;;;;3.75;1.80;;;;;;;;;;4991402;28;20109;-76
2023/03/28 12:48:46;;;;;;;3.67;1.50;;;;;;;;;;4980212;28;20476;-77
2023/03/28 12:51:29;;;;;;;5.47;1.85;;;;;;;;;;4994201;28;20030;-76
2023/03/28 12:54:14;;;;;;;5.10;1.75;;;;;;;;;;5001728;28;20138;-77
2023/03/28 12:56:40;;;;;;;3.85;1.63;;;;;;;;;;5001061;28;20473;-76
2023/03/28 12:59:53;;;;;;;6.03;1.70;;;;;;;;;;4996622;28;20031;-77
2023/03/28 13:02:39;;;;;;;4.45;1.50;;;;;;;;;;4970216;28;20391;-77
2023/03/28 13:05:23;;;;;;;6.13;1.80;;;;;;;;;;4985498;28;20482;-76
2023/03/28 13:08:14;;;;;;;5.22;1.50;;;;;;;;;;5015048;28;20029;-77
2023/03/28 13:11:01;;;;;;;6.03;1.65;;;;;;;;;;4984459;28;20312;-77
2023/03/28 13:13:50;;;;;;;3.97;1.58;;;;;;;;;;5003922;28;20036;-78
2023/03/28 13:16:22;;;;;;;3.72;1.70;;;;;;;;;;4994522;28;20415;-78
2023/03/28 13:19:06;;;;;;;2.50;1.40;;;;;;;;;;5000325;28;20044;-77
2023/03/28 13:21:54;;;;;;;3.95;1.33;;;;;;;;;;4984720;28;20030;-78
2023/03/28 13:24:35;;;;;;;5.50;2.33;;;;;;;;;;4980969;28;20030;-76
2023/03/28 13:27:27;;;;;;;4.80;1.85;;;;;;;;;;5001227;28;20504;-76
2023/03/28 13:30:02;;;;;;;3.72;1.75;;;;;;;;;;4980873;28;20029;-77
2023/03/28 13:32:32;;;;;;;3.60;1.58;;;;;;;;;;5003542;28;20127;-78
2023/03/28 13:35:03;;;;;;;5.00;1.60;;;;;;;;;;4987154;28;20033;-77
2023/03/28 13:37:40;;;;;;;4.28;1.50;;;;;;;;;;5006636;28;20393;-77
2023/03/28 13:40:46;;;;;;;6.30;1.65;;;;;;;;;;4997254;28;20032;-77
2023/03/28 13:43:24;;;;;;;5.43;1.92;;;;;;;;;;4985264;28;20033;-76
2023/03/28 13:45:53;;;;;;;2.92;1.30;;;;;;;;;;5004449;28;20820;-77
2023/03/28 13:48:20;;;;;;;6.88;1.88;;;;;;;;;;5006414;28;20561;-77
2023/03/28 13:50:48;;;;;;;6.60;1.92;;;;;;;;;;4986103;28;20092;-77
2023/03/28 13:53:13;;;;;;;3.60;1.83;;;;;;;;;;4987621;28;20032;-77
2023/03/28 13:55:41;;;;;;;5.82;2.03;;;;;;;;;;5003846;28;20026;-76
2023/03/28 13:58:12;;;;;;;5.85;1.70;;;;;;;;;;4983611;28;20165;-77
2023/03/28 14:00:38;;;;;;;5.80;1.50;;;;;;;;;;5012425;28;20486;-76
2023/03/28 14:03:13;;;;;;;5.43;1.88;;;;;;;;;;4989029;28;20059;-76
2023/03/28 14:05:45;;;;;;;4.85;1.85;;;;;;;;;;5004933;28;20037;-78
2023/03/28 14:08:13;;;;;;;4.60;1.57;;;;;;;;;;4987950;28;20030;-76
2023/03/28 14:10:41;;;;;;;5.50;1.48;;;;;;;;;;4987825;28;20271;-77
2023/03/28 14:13:13;;;;;;;7.72;1.80;;;;;;;;;;5005533;28;20040;-77
2023/03/28 14:15:39;;;;;;;3.55;1.42;;;;;;;;;;5006252;28;20362;-77
2023/03/28 14:18:11;;;;;;;7.40;2.88;;;;;;;;;;5009822;28;20022;-77
2023/03/28 14:20:36;;;;;;;5.47;2.08;;;;;;;;;;5006458;28;20029;-77
2023/03/28 14:23:04;;;;;;;3.65;1.40;;;;;;;;;;5000116;28;20520;-76
2023/03/28 14:25:29;;;;;;;6.50;1.90;;;;;;;;;;5002576;28;20458;-76
2023/03/28 14:27:55;;;;;;;4.43;1.85;;;;;;;;;;5001990;28;20029;-76
2023/03/28 14:30:37;;;;;;;5.38;1.60;;;;;;;;;;4985948;28;20044;-77
2023/03/28 14:33:17;;;;;;;4.30;1.65;;;;;;;;;;5005926;28;20569;-77
2023/03/28 14:35:44;;;;;;;4.93;1.50;;;;;;;;;;5006445;28;20080;-77
2023/03/28 14:38:25;;;;;;;3.45;1.50;;;;;;;;;;4993503;28;20409;-77
2023/03/28 14:40:51;;;;;;;4.13;1.60;;;;;;;;;;5002702;28;20021;-77
2023/03/28 14:43:26;;;;;;;3.42;1.58;;;;;;;;;;5003168;28;20038;-77
2023/03/28 14:45:53;;;;;;;3.58;1.65;;;;;;;;;;5004366;28;20049;-77
2023/03/28 14:48:23;;;;;;;6.10;1.80;;;;;;;;;;5000385;28;20555;-77
2023/03/28 14:50:50;;;;;;;6.00;1.90;;;;;;;;;;5003576;28;20041;-77
2023/03/28 14:53:21;;;;;;;4.15;1.80;;;;;;;;;;5004093;28;20025;-76
2023/03/28 14:55:48;;;;;;;5.95;1.80;;;;;;;;;;4987277;28;20028;-77
2023/03/28 14:58:15;;;;;;;7.00;1.70;;;;;;;;;;5005672;28;20025;-75
2023/03/28 15:00:44;;;;;;;3.53;1.45;;;;;;;;;;4990197;28;20126;-77
2023/03/28 15:03:18;;;;;;;6.22;1.98;;;;;;;;;;5004219;28;20120;-77
2023/03/28 15:05:47;;;;;;;3.30;1.60;;;;;;;;;;4988627;28;20030;-76
2023/03/28 15:08:27;;;;;;;5.13;2.05;;;;;;;;;;4984403;28;20040;-77
2023/03/28 15:10:53;;;;;;;5.63;1.95;;;;;;;;;;5000544;28;20029;-77
2023/03/28 15:13:32;;;;;;;3.97;1.90;;;;;;;;;;5004583;28;20038;-75